Time;durP1;ratioP1;P1;durP2;ratioP2;P2;SDS_P1;SDS_P2;PMS_P1;PMS_P2;Temp;Humidity;BMP_temperature;BMP_pressure;BME280_temperature;BME280_humidity;BME280_pressure;Samples;Min_cycle;Max_cycle;Signal;HPM_P1;HPM_P2
2023/02/08 00:00:29;;;;;;;4.03;3.72;;;-4.20;99.90;;;;;;5069794;28;20207;-74
2023/02/08 00:02:55;;;;;;;6.65;3.83;;;-4.30;99.90;;;;;;5070253;28;20208;-74
2023/02/08 00:05:22;;;;;;;5.55;3.70;;;-4.30;99.90;;;;;;5069903;28;20208;-75
2023/02/08 00:07:49;;;;;;;5.35;4.38;;;-4.30;99.90;;;;;;5070277;28;20227;-75
2023/02/08 00:10:18;;;;;;;7.15;5.25;;;-4.30;99.90;;;;;;5069442;28;20205;-76
2023/02/08 00:12:45;;;;;;;6.05;4.38;;;-4.40;99.90;;;;;;5069636;28;20223;-76
2023/02/08 00:15:14;;;;;;;8.32;5.13;;;-4.40;99.90;;;;;;5070187;28;20207;-75
2023/02/08 00:17:40;;;;;;;7.88;4.30;;;-4.50;99.90;;;;;;5069840;28;20232;-75
2023/02/08 00:20:08;;;;;;;4.32;3.70;;;-4.50;99.90;;;;;;5068992;28;20211;-75
2023/02/08 00:22:35;;;;;;;5.45;3.88;;;-4.50;99.90;;;;;;5069938;28;20232;-76
2023/02/08 00:25:02;;;;;;;7.57;4.15;;;-4.50;99.90;;;;;;5072871;28;20253;-76
2023/02/08 00:27:29;;;;;;;5.47;3.92;;;-4.50;99.90;;;;;;5073401;28;20304;-75
2023/02/08 00:29:55;;;;;;;7.63;5.47;;;-4.50;99.90;;;;;;5073197;28;20208;-75
2023/02/08 00:32:23;;;;;;;6.50;5.03;;;-4.50;99.90;;;;;;5073393;28;20201;-75
2023/02/08 00:34:50;;;;;;;4.75;3.00;;;-4.60;99.90;;;;;;5074426;28;20200;-76
2023/02/08 00:37:17;;;;;;;4.45;3.83;;;-4.60;99.90;;;;;;5080600;28;20225;-76
2023/02/08 00:39:44;;;;;;;8.20;4.65;;;-4.60;99.90;;;;;;5076444;28;20223;-76
2023/02/08 00:42:11;;;;;;;5.72;3.90;;;-4.60;99.90;;;;;;5078680;28;20220;-76
2023/02/08 00:44:38;;;;;;;5.68;3.72;;;-4.60;99.90;;;;;;5080877;28;20210;-76
2023/02/08 00:47:05;;;;;;;6.10;3.80;;;-4.70;99.90;;;;;;5081365;28;20224;-76
2023/02/08 00:49:33;;;;;;;3.80;3.47;;;-4.60;99.90;;;;;;5078350;28;20204;-76
2023/02/08 00:51:59;;;;;;;4.90;3.42;;;-4.70;99.90;;;;;;5074127;28;20244;-76
2023/02/08 00:54:26;;;;;;;4.25;3.58;;;-4.70;99.90;;;;;;5074569;28;20201;-76
2023/02/08 00:56:53;;;;;;;6.75;3.40;;;-4.70;99.90;;;;;;5073675;28;20243;-76
2023/02/08 00:59:20;;;;;;;4.03;3.08;;;-4.80;99.90;;;;;;5072777;28;20271;-76
2023/02/08 01:01:46;;;;;;;7.35;4.32;;;-4.80;99.90;;;;;;5073177;28;20721;-76
2023/02/08 01:04:13;;;;;;;5.15;3.33;;;-4.80;99.90;;;;;;5073102;28;20208;-75
2023/02/08 01:06:41;;;;;;;3.17;2.95;;;-4.90;99.90;;;;;;5073504;28;20216;-76
2023/02/08 01:09:08;;;;;;;5.45;3.38;;;-4.90;99.90;;;;;;5072428;28;20204;-77
2023/02/08 01:11:35;;;;;;;6.55;4.05;;;-4.90;99.90;;;;;;5072763;28;20228;-75
2023/02/08 01:14:02;;;;;;;4.03;3.10;;;-4.90;99.90;;;;;;5072766;28;20625;-76
2023/02/08 01:16:31;;;;;;;3.85;2.63;;;-4.90;99.90;;;;;;5072910;28;20232;-75
2023/02/08 01:18:59;;;;;;;6.78;3.65;;;-5.00;99.90;;;;;;5072545;28;20583;-76
2023/02/08 01:21:28;;;;;;;5.97;4.63;;;-5.00;99.90;;;;;;5073201;28;20710;-76
2023/02/08 01:23:56;;;;;;;3.88;3.40;;;-5.00;99.90;;;;;;5072732;28;20207;-76
2023/02/08 01:26:24;;;;;;;4.13;3.45;;;-5.00;99.90;;;;;;5072706;28;20216;-76
2023/02/08 01:28:52;;;;;;;7.00;3.47;;;-5.00;99.90;;;;;;5072325;28;20258;-76
2023/02/08 01:31:21;;;;;;;6.22;2.85;;;-5.10;99.90;;;;;;5072717;28;20589;-75
2023/02/08 01:33:48;;;;;;;4.70;2.65;;;-5.00;99.90;;;;;;5073405;28;20216;-75
2023/02/08 01:36:16;;;;;;;7.60;3.92;;;-5.10;99.90;;;;;;5072153;28;20224;-76
2023/02/08 01:38:43;;;;;;;4.70;3.00;;;-5.10;99.90;;;;;;5072040;28;20254;-75
2023/02/08 01:41:15;;;;;;;5.47;3.00;;;-5.10;99.90;;;;;;5072437;28;20196;-76
2023/02/08 01:44:07;;;;;;;5.50;3.17;;;-5.10;99.90;;;;;;5072419;28;20201;-76
2023/02/08 01:46:35;;;;;;;3.97;2.83;;;-5.10;99.90;;;;;;5073318;28;20232;-75
2023/02/08 01:49:06;;;;;;;5.68;3.30;;;-5.10;99.90;;;;;;5072004;28;20226;-75
2023/02/08 01:51:36;;;;;;;5.32;3.10;;;-5.20;99.90;;;;;;5072464;28;20192;-75
2023/02/08 01:54:06;;;;;;;5.72;4.05;;;-5.30;99.90;;;;;;5072354;28;20200;-76
2023/02/08 01:56:37;;;;;;;4.03;2.95;;;-5.30;99.90;;;;;;5072578;28;20228;-76
2023/02/08 01:59:09;;;;;;;4.45;3.88;;;-5.30;99.90;;;;;;5071774;28;20585;-75
2023/02/08 02:01:38;;;;;;;8.02;4.00;;;-5.30;99.90;;;;;;5072351;28;20718;-75
2023/02/08 02:04:07;;;;;;;5.65;3.65;;;-5.30;99.90;;;;;;5073181;28;20200;-75
2023/02/08 02:06:37;;;;;;;4.20;2.50;;;-5.40;99.90;;;;;;5072400;28;20220;-76
2023/02/08 02:09:11;;;;;;;9.07;3.33;;;-5.40;99.90;;;;;;5071341;28;20583;-76
2023/02/08 02:11:40;;;;;;;6.30;3.38;;;-5.40;99.90;;;;;;5072069;28;20196;-75
2023/02/08 02:14:08;;;;;;;7.20;3.50;;;-5.40;99.90;;;;;;5072367;28;20205;-76
2023/02/08 02:16:35;;;;;;;6.53;3.92;;;-5.50;99.90;;;;;;5071795;28;20237;-75
2023/02/08 02:19:02;;;;;;;5.10;2.55;;;-5.40;99.90;;;;;;5071244;28;20710;-75
2023/02/08 02:21:46;;;;;;;4.32;3.13;;;-5.40;99.90;;;;;;5071728;28;20212;-75
2023/02/08 02:24:42;;;;;;;3.63;2.83;;;-5.50;99.90;;;;;;5071480;28;20527;-75
2023/02/08 02:27:33;;;;;;;5.60;2.95;;;-5.50;99.90;;;;;;5072190;28;20221;-75
2023/02/08 02:30:35;;;;;;;6.30;3.55;;;-5.50;99.90;;;;;;5061382;28;20204;-75
2023/02/08 02:33:27;;;;;;;7.75;3.65;;;-5.50;99.90;;;;;;5071736;28;20196;-76
2023/02/08 02:36:00;;;;;;;7.03;3.85;;;-5.50;99.90;;;;;;5071412;28;20730;-76
2023/02/08 02:38:41;;;;;;;7.43;4.28;;;-5.40;99.90;;;;;;5070943;28;20196;-75
2023/02/08 02:43:40;;;;;;;8.20;4.40;;;-5.40;99.90;;;;;;5071161;28;20204;-75
2023/02/08 02:44:13;;;;;;;8.13;5.30;;;-5.40;99.90;;;;;;5071951;28;20284;-75
2023/02/08 02:46:44;;;;;;;5.95;3.90;;;-5.40;99.90;;;;;;5071236;28;20227;-75
2023/02/08 02:49:18;;;;;;;7.00;3.42;;;-5.40;99.90;;;;;;5070825;28;20211;-75
2023/02/08 02:51:51;;;;;;;7.40;5.22;;;-5.40;99.90;;;;;;5071203;28;20608;-77
2023/02/08 02:54:22;;;;;;;5.65;3.95;;;-5.40;99.90;;;;;;5071319;28;20262;-74
2023/02/08 02:56:53;;;;;;;10.40;4.50;;;-5.40;99.90;;;;;;5071720;28;20251;-76
2023/02/08 02:59:21;;;;;;;6.30;3.60;;;-5.50;99.90;;;;;;5070789;28;20247;-76
2023/02/08 03:01:48;;;;;;;7.32;3.75;;;-5.50;99.90;;;;;;5071457;28;20216;-76
2023/02/08 03:04:18;;;;;;;7.47;4.68;;;-5.50;99.90;;;;;;5071205;28;20200;-76
2023/02/08 03:06:58;;;;;;;9.32;4.30;;;-5.50;99.90;;;;;;5071165;28;20217;-76
2023/02/08 03:09:47;;;;;;;4.13;3.58;;;-5.50;99.90;;;;;;5070546;28;20204;-76
2023/02/08 03:12:29;;;;;;;9.93;4.95;;;-5.50;99.90;;;;;;5071527;28;20200;-76
2023/02/08 03:15:02;;;;;;;5.07;3.63;;;-5.50;99.90;;;;;;5071630;28;20223;-76
2023/02/08 03:17:39;;;;;;;5.07;4.22;;;-5.50;99.90;;;;;;5071052;28;20228;-74
2023/02/08 03:20:11;;;;;;;6.55;4.07;;;-5.50;99.90;;;;;;5070739;28;20208;-76
2023/02/08 03:22:45;;;;;;;9.73;4.68;;;-5.50;99.90;;;;;;5071711;28;20220;-76
2023/02/08 03:25:18;;;;;;;9.30;4.57;;;-5.50;99.90;;;;;;5070814;28;20207;-76
2023/02/08 03:27:55;;;;;;;4.05;3.20;;;-5.60;99.90;;;;;;5070778;28;20196;-76
2023/02/08 03:30:28;;;;;;;7.93;4.00;;;-5.60;99.90;;;;;;5070123;28;20286;-76
2023/02/08 03:32:58;;;;;;;6.82;3.03;;;-5.60;99.90;;;;;;5070894;28;20254;-76
2023/02/08 03:35:30;;;;;;;7.47;4.38;;;-5.60;99.90;;;;;;5070323;28;20208;-75
2023/02/08 03:38:00;;;;;;;7.20;4.60;;;-5.70;99.90;;;;;;5070312;28;20204;-76
2023/02/08 03:40:32;;;;;;;7.45;5.20;;;-5.70;99.90;;;;;;5070144;28;20208;-76
2023/02/08 03:43:04;;;;;;;4.50;2.88;;;-5.70;99.90;;;;;;5070572;28;20231;-75
2023/02/08 03:45:36;;;;;;;5.38;3.85;;;-5.70;99.90;;;;;;5070768;28;20201;-75
2023/02/08 03:48:07;;;;;;;5.38;3.53;;;-5.70;99.90;;;;;;5070627;28;20565;-76
2023/02/08 03:50:39;;;;;;;6.03;4.22;;;-5.70;99.90;;;;;;5070441;28;20205;-75
2023/02/08 03:53:08;;;;;;;6.85;4.18;;;-5.70;99.90;;;;;;5070999;28;20200;-75
2023/02/08 03:55:37;;;;;;;6.97;5.00;;;-5.70;99.90;;;;;;5071690;28;20227;-76
2023/02/08 03:58:10;;;;;;;6.63;3.65;;;-5.70;99.90;;;;;;5072315;28;20208;-75
2023/02/08 04:00:40;;;;;;;5.03;3.53;;;-5.70;99.90;;;;;;5075000;28;20628;-75
2023/02/08 04:03:15;;;;;;;5.40;3.90;;;-5.70;99.90;;;;;;5074297;28;20570;-76
2023/02/08 04:05:44;;;;;;;5.60;3.95;;;-5.70;99.90;;;;;;5074875;28;20591;-75
2023/02/08 04:08:10;;;;;;;4.50;3.65;;;-5.70;99.90;;;;;;5073639;28;20252;-75
2023/02/08 04:10:37;;;;;;;7.80;5.20;;;-5.70;99.90;;;;;;5073890;28;20204;-75
2023/02/08 04:13:04;;;;;;;7.50;4.28;;;-5.70;99.90;;;;;;5073844;28;20203;-76
2023/02/08 04:15:31;;;;;;;5.30;4.80;;;-5.70;99.90;;;;;;5074263;28;20295;-75
2023/02/08 04:17:58;;;;;;;4.35;3.95;;;-5.70;99.90;;;;;;5073903;28;20223;-74
2023/02/08 04:20:25;;;;;;;5.85;4.05;;;-5.70;99.90;;;;;;5073446;28;20205;-76
2023/02/08 04:22:53;;;;;;;7.50;4.55;;;-5.70;99.90;;;;;;5074103;28;20741;-77
2023/02/08 04:25:20;;;;;;;9.13;4.10;;;-5.80;99.90;;;;;;5073705;28;20768;-77
2023/02/08 04:27:46;;;;;;;6.57;4.25;;;-5.80;99.90;;;;;;5073886;28;20200;-76
2023/02/08 04:30:14;;;;;;;9.27;4.90;;;-5.80;99.90;;;;;;5073323;28;20263;-76
2023/02/08 04:32:40;;;;;;;7.28;4.82;;;-5.80;99.90;;;;;;5073618;28;20196;-75
2023/02/08 04:35:07;;;;;;;5.43;4.28;;;-5.80;99.90;;;;;;5073557;28;20204;-76
2023/02/08 04:37:34;;;;;;;6.55;4.03;;;-5.80;99.90;;;;;;5073859;28;20227;-76
2023/02/08 04:40:02;;;;;;;9.00;4.53;;;-5.80;99.90;;;;;;5073294;28;20283;-76
2023/02/08 04:42:29;;;;;;;6.88;4.05;;;-5.90;99.90;;;;;;5073543;28;20220;-76
2023/02/08 04:44:56;;;;;;;5.65;4.03;;;-5.90;99.90;;;;;;5073485;28;20224;-75
2023/02/08 04:47:22;;;;;;;7.90;4.40;;;-5.90;99.90;;;;;;5073560;28;20235;-75
2023/02/08 04:49:49;;;;;;;7.90;4.57;;;-5.90;99.90;;;;;;5073123;28;20218;-75
2023/02/08 04:52:16;;;;;;;11.02;4.97;;;-5.90;99.90;;;;;;5079115;28;20216;-76
2023/02/08 04:54:42;;;;;;;5.45;3.92;;;-5.90;99.90;;;;;;5076540;28;20577;-75
2023/02/08 04:57:12;;;;;;;4.10;3.25;;;-5.90;99.90;;;;;;5073848;28;20240;-76
2023/02/08 04:59:39;;;;;;;5.80;4.00;;;-6.00;99.90;;;;;;5073830;28;20215;-76
2023/02/08 05:02:05;;;;;;;6.15;3.38;;;-6.00;99.90;;;;;;5073963;28;20204;-74
2023/02/08 05:04:33;;;;;;;5.70;4.40;;;-6.00;99.90;;;;;;5075162;28;20462;-74
2023/02/08 05:06:59;;;;;;;6.90;4.65;;;-6.00;99.90;;;;;;5073405;28;20220;-75
2023/02/08 05:09:26;;;;;;;4.80;3.30;;;-6.00;99.90;;;;;;5073205;28;20200;-75
2023/02/08 05:11:53;;;;;;;7.88;3.80;;;-6.10;99.90;;;;;;5073784;28;20227;-76
2023/02/08 05:14:21;;;;;;;6.28;3.85;;;-6.10;99.90;;;;;;5073435;28;20205;-76
2023/02/08 05:16:48;;;;;;;6.53;3.92;;;-6.10;99.90;;;;;;5073347;28;20246;-76
2023/02/08 05:19:15;;;;;;;6.07;4.15;;;-6.10;99.90;;;;;;5072630;28;20211;-75
2023/02/08 05:21:42;;;;;;;5.45;4.70;;;-6.10;99.90;;;;;;5073187;28;20200;-75
2023/02/08 05:24:11;;;;;;;7.07;3.60;;;-6.10;99.90;;;;;;5073257;28;20231;-75
2023/02/08 05:26:38;;;;;;;5.43;4.30;;;-6.10;99.90;;;;;;5072960;28;20277;-75
2023/02/08 05:29:05;;;;;;;7.70;5.47;;;-6.10;99.90;;;;;;5072735;28;20589;-75
2023/02/08 05:31:33;;;;;;;6.70;4.63;;;-6.10;99.90;;;;;;5073034;28;20211;-76
2023/02/08 05:33:59;;;;;;;6.20;4.18;;;-6.20;99.90;;;;;;5072798;28;20204;-76
2023/02/08 05:36:26;;;;;;;7.90;4.10;;;-6.20;99.90;;;;;;5073015;28;20228;-76
2023/02/08 05:38:53;;;;;;;5.72;3.92;;;-6.10;99.90;;;;;;5072342;28;20200;-75
2023/02/08 05:41:20;;;;;;;6.32;4.30;;;-6.10;99.90;;;;;;5072989;28;20196;-75
2023/02/08 05:43:47;;;;;;;7.43;4.15;;;-6.10;99.90;;;;;;5073192;28;20725;-74
2023/02/08 05:46:13;;;;;;;7.93;5.40;;;-6.20;99.90;;;;;;5072466;28;20228;-75
2023/02/08 05:48:42;;;;;;;4.45;3.45;;;-6.20;99.90;;;;;;5072790;28;20207;-75
2023/02/08 05:51:09;;;;;;;4.30;3.90;;;-6.10;99.90;;;;;;5073078;28;20212;-75
2023/02/08 05:53:36;;;;;;;5.05;3.90;;;-6.20;99.90;;;;;;5074664;28;20276;-75
2023/02/08 05:56:03;;;;;;;4.60;2.80;;;-6.20;99.90;;;;;;5073238;28;20707;-75
2023/02/08 05:58:30;;;;;;;5.20;4.50;;;-6.10;99.90;;;;;;5072851;28;20230;-76
2023/02/08 06:00:57;;;;;;;10.93;4.25;;;-6.10;99.90;;;;;;5073083;28;20316;-75
2023/02/08 06:03:24;;;;;;;10.38;4.70;;;-6.20;99.90;;;;;;5073788;28;20235;-75
2023/02/08 06:05:53;;;;;;;4.50;3.75;;;-6.10;99.90;;;;;;5073464;28;20649;-75
2023/02/08 06:08:20;;;;;;;6.15;3.50;;;-6.10;99.90;;;;;;5072789;28;20291;-76
2023/02/08 06:10:49;;;;;;;7.70;4.53;;;-6.10;99.90;;;;;;5073561;28;20204;-75
2023/02/08 06:13:15;;;;;;;30.75;6.20;;;-6.10;99.90;;;;;;5072521;28;20645;-75
2023/02/08 06:15:42;;;;;;;7.28;4.30;;;-6.20;99.90;;;;;;5074214;28;20234;-75
2023/02/08 06:18:09;;;;;;;9.43;5.28;;;-6.20;99.90;;;;;;5075110;28;20307;-75
2023/02/08 06:20:36;;;;;;;6.25;5.13;;;-6.20;99.90;;;;;;5076185;28;20196;-74
2023/02/08 06:23:04;;;;;;;4.60;4.20;;;-6.20;99.90;;;;;;5078292;28;20231;-73
2023/02/08 06:25:31;;;;;;;4.30;3.60;;;-6.20;99.90;;;;;;5079018;28;20200;-75
2023/02/08 06:27:58;;;;;;;10.43;4.22;;;-6.20;99.90;;;;;;5074897;28;20208;-75
2023/02/08 06:30:24;;;;;;;6.70;4.00;;;-6.20;99.90;;;;;;5071445;28;20204;-75
2023/02/08 06:32:51;;;;;;;5.00;4.28;;;-6.20;99.90;;;;;;5071838;28;20196;-76
2023/02/08 06:35:18;;;;;;;5.90;4.22;;;-6.20;99.90;;;;;;5071686;28;20573;-76
2023/02/08 06:37:45;;;;;;;10.18;4.22;;;-6.20;99.90;;;;;;5071969;28;20207;-76
2023/02/08 06:40:13;;;;;;;8.95;5.43;;;-6.30;99.90;;;;;;5071190;28;20200;-75
2023/02/08 06:42:41;;;;;;;4.00;3.17;;;-6.30;99.90;;;;;;5072254;28;20207;-76
2023/02/08 06:45:09;;;;;;;8.82;4.68;;;-6.30;99.90;;;;;;5072442;28;20311;-75
2023/02/08 06:47:35;;;;;;;4.93;3.92;;;-6.30;99.90;;;;;;5072044;28;20722;-76
2023/02/08 06:50:02;;;;;;;11.02;4.47;;;-6.30;99.90;;;;;;5071601;28;20262;-76
2023/02/08 06:52:29;;;;;;;5.45;4.10;;;-6.30;99.90;;;;;;5071445;28;20207;-75
2023/02/08 06:54:56;;;;;;;5.90;3.95;;;-6.30;99.90;;;;;;5071309;28;20201;-75
2023/02/08 06:57:24;;;;;;;4.45;3.58;;;-6.20;99.90;;;;;;5071903;28;20224;-75
2023/02/08 06:59:51;;;;;;;9.98;4.70;;;-6.20;99.90;;;;;;5071407;28;20204;-75
2023/02/08 07:02:20;;;;;;;8.05;4.97;;;-6.10;99.90;;;;;;5071895;28;20562;-75
2023/02/08 07:04:47;;;;;;;5.30;4.03;;;-6.10;99.90;;;;;;5071920;28;20220;-76
2023/02/08 07:07:14;;;;;;;8.20;4.22;;;-6.10;99.90;;;;;;5072039;28;20446;-75
2023/02/08 07:09:41;;;;;;;5.97;4.60;;;-6.00;99.90;;;;;;5070577;28;20206;-75
2023/02/08 07:12:09;;;;;;;6.28;3.80;;;-5.90;99.90;;;;;;5070874;28;20219;-75
2023/02/08 07:14:40;;;;;;;8.82;4.55;;;-5.90;99.90;;;;;;5070792;28;20223;-75
2023/02/08 07:17:07;;;;;;;12.95;4.53;;;-5.80;99.90;;;;;;5070368;28;20289;-75
2023/02/08 07:19:34;;;;;;;4.28;3.83;;;-5.80;99.90;;;;;;5070513;28;20204;-75
2023/02/08 07:22:06;;;;;;;5.15;4.28;;;-5.80;99.90;;;;;;5070740;28;20201;-74
2023/02/08 07:24:34;;;;;;;6.32;4.50;;;-5.70;99.90;;;;;;5070796;28;20227;-75
2023/02/08 07:27:01;;;;;;;9.38;4.22;;;-5.70;99.90;;;;;;5070470;28;20259;-75
2023/02/08 07:29:29;;;;;;;6.38;4.15;;;-5.70;99.90;;;;;;5070238;28;20593;-75
2023/02/08 07:31:58;;;;;;;5.30;3.92;;;-5.60;99.90;;;;;;5070478;28;20203;-75
2023/02/08 07:34:24;;;;;;;10.65;4.30;;;-5.50;99.90;;;;;;5073916;28;20224;-74
2023/02/08 07:36:51;;;;;;;9.60;5.30;;;-5.50;99.90;;;;;;5073808;28;20606;-74
2023/02/08 07:39:18;;;;;;;12.70;5.28;;;-5.50;99.90;;;;;;5073324;28;20212;-74
2023/02/08 07:41:44;;;;;;;7.30;4.57;;;-5.40;99.90;;;;;;5074222;28;20291;-75
2023/02/08 07:44:11;;;;;;;11.25;4.55;;;-5.40;99.90;;;;;;5073737;28;20247;-74
2023/02/08 07:46:39;;;;;;;9.20;5.30;;;-5.30;99.90;;;;;;5074335;28;20234;-74
2023/02/08 07:49:07;;;;;;;11.25;5.35;;;-5.10;99.90;;;;;;5073906;28;20344;-75
2023/02/08 07:51:34;;;;;;;9.77;5.68;;;-4.90;99.90;;;;;;5074502;28;20232;-75
2023/02/08 07:54:01;;;;;;;8.45;5.68;;;-4.60;99.90;;;;;;5074217;28;20200;-75
2023/02/08 07:56:28;;;;;;;13.48;6.00;;;-3.50;99.90;;;;;;5073706;28;20235;-75
2023/02/08 07:58:57;;;;;;;9.93;5.65;;;-1.60;99.90;;;;;;5072255;28;20212;-74
2023/02/08 08:01:23;;;;;;;7.45;5.07;;;0.20;99.90;;;;;;5075918;28;20651;-76
2023/02/08 08:03:51;;;;;;;9.80;5.80;;;1.90;99.90;;;;;;5073710;28;20217;-75
2023/02/08 08:06:21;;;;;;;6.90;4.63;;;3.40;99.10;;;;;;5073425;28;20291;-76
2023/02/08 08:08:48;;;;;;;8.13;5.32;;;4.40;97.20;;;;;;5073202;28;20211;-75
2023/02/08 08:11:15;;;;;;;12.02;6.70;;;5.60;95.00;;;;;;5073807;28;20204;-75
2023/02/08 08:13:42;;;;;;;8.75;5.05;;;6.20;92.90;;;;;;5073620;28;20283;-75
2023/02/08 08:16:09;;;;;;;7.13;5.57;;;7.00;91.10;;;;;;5073596;28;20228;-75
2023/02/08 08:18:35;;;;;;;6.93;5.28;;;7.50;87.90;;;;;;5072919;28;20573;-75
2023/02/08 08:21:02;;;;;;;10.40;5.47;;;7.90;85.80;;;;;;5073710;28;20201;-75
2023/02/08 08:23:31;;;;;;;8.57;5.65;;;8.10;83.80;;;;;;5073207;28;20221;-75
2023/02/08 08:25:58;;;;;;;8.25;5.22;;;8.30;80.60;;;;;;5073574;28;20311;-75
2023/02/08 08:28:25;;;;;;;7.10;5.22;;;8.40;77.90;;;;;;5072445;28;20230;-74
2023/02/08 08:30:52;;;;;;;6.45;5.13;;;7.90;77.10;;;;;;5073119;28;20219;-76
2023/02/08 08:33:19;;;;;;;6.10;4.03;;;8.20;77.20;;;;;;5072989;28;20916;-76
2023/02/08 08:35:46;;;;;;;9.43;5.72;;;8.90;74.70;;;;;;5073101;28;20220;-76
2023/02/08 08:38:12;;;;;;;7.50;5.18;;;9.50;74.20;;;;;;5072886;28;20303;-75
2023/02/08 08:40:40;;;;;;;7.03;4.78;;;9.90;74.70;;;;;;5072333;28;20208;-76
2023/02/08 08:43:07;;;;;;;12.57;6.20;;;10.20;71.40;;;;;;5073145;28;20204;-76
2023/02/08 08:45:35;;;;;;;7.60;5.20;;;10.90;68.80;;;;;;5071854;28;20646;-75
2023/02/08 08:48:02;;;;;;;8.48;5.75;;;10.40;68.20;;;;;;5061208;28;20208;-76
2023/02/08 08:50:29;;;;;;;6.47;4.95;;;11.20;69.10;;;;;;5065883;28;20208;-76
2023/02/08 08:52:56;;;;;;;8.02;5.57;;;11.10;66.30;;;;;;5081549;28;20200;-75
2023/02/08 08:55:23;;;;;;;6.57;5.32;;;11.60;66.60;;;;;;5077710;28;20197;-75
2023/02/08 08:57:52;;;;;;;7.60;5.78;;;12.30;65.00;;;;;;5072528;28;20208;-76
2023/02/08 09:00:19;;;;;;;6.43;5.05;;;12.20;65.00;;;;;;5069890;28;20192;-75
2023/02/08 09:02:46;;;;;;;6.75;5.13;;;12.50;64.20;;;;;;5050533;28;20212;-74
2023/02/08 09:05:13;;;;;;;8.10;5.50;;;12.90;62.50;;;;;;5062728;28;20253;-74
2023/02/08 09:07:40;;;;;;;8.93;5.30;;;13.80;62.10;;;;;;5072663;28;20228;-74
2023/02/08 09:10:07;;;;;;;6.00;5.00;;;13.60;59.70;;;;;;5072162;28;20950;-75
2023/02/08 09:12:34;;;;;;;6.23;5.43;;;13.30;59.60;;;;;;5072196;28;20295;-75
2023/02/08 09:15:02;;;;;;;9.13;5.90;;;12.90;58.90;;;;;;5072420;28;20455;-74
2023/02/08 09:17:29;;;;;;;9.35;5.40;;;12.80;61.00;;;;;;5087207;28;20232;-75
2023/02/08 09:19:56;;;;;;;8.15;6.25;;;13.00;59.00;;;;;;5091309;28;20682;-74
2023/02/08 09:22:23;;;;;;;8.15;5.90;;;13.50;61.00;;;;;;5093010;28;20200;-75
2023/02/08 09:24:52;;;;;;;7.10;5.20;;;13.90;59.20;;;;;;5088201;28;20311;-75
2023/02/08 09:27:18;;;;;;;8.30;5.93;;;14.10;57.90;;;;;;5072271;28;20565;-74
2023/02/08 09:29:45;;;;;;;9.30;6.23;;;14.00;59.10;;;;;;5071487;28;20591;-74
2023/02/08 09:32:13;;;;;;;8.05;6.03;;;14.30;57.60;;;;;;5072487;28;20468;-74
2023/02/08 09:34:40;;;;;;;8.43;6.30;;;14.40;58.70;;;;;;5073334;28;20208;-75
2023/02/08 09:37:07;;;;;;;7.10;5.90;;;14.60;58.10;;;;;;5073043;28;20220;-74
2023/02/08 09:39:34;;;;;;;8.83;7.13;;;14.80;58.50;;;;;;5071475;28;20458;-72
2023/02/08 09:42:19;;;;;;;7.30;5.67;;;15.40;59.50;;;;;;5071338;28;21003;-74
2023/02/08 09:45:02;;;;;;;8.17;5.73;;;16.30;58.80;;;;;;5071418;28;21076;-73
2023/02/08 09:47:34;;;;;;;8.10;5.97;;;16.90;57.90;;;;;;5071201;28;21044;-74
2023/02/08 09:50:05;;;;;;;9.10;6.20;;;16.50;56.20;;;;;;5069551;28;20458;-72
2023/02/08 09:52:36;;;;;;;8.60;6.23;;;15.70;54.80;;;;;;5068391;28;20450;-74
2023/02/08 09:55:17;;;;;;;8.40;6.37;;;15.30;57.60;;;;;;5070132;28;20457;-74
2023/02/08 09:57:44;;;;;;;10.03;5.80;;;14.70;56.40;;;;;;5070698;28;20478;-74
2023/02/08 10:00:16;;;;;;;7.50;6.40;;;14.70;55.90;;;;;;5069728;28;20466;-73
2023/02/08 10:02:47;;;;;;;6.73;5.63;;;14.50;56.80;;;;;;5070045;28;20642;-74
2023/02/08 10:05:18;;;;;;;8.07;5.00;;;13.30;57.20;;;;;;5070726;28;20482;-74
2023/02/08 10:07:45;;;;;;;7.53;5.40;;;12.90;57.50;;;;;;5069735;28;20458;-74
2023/02/08 10:10:16;;;;;;;6.38;5.50;;;12.80;57.80;;;;;;5070637;28;20469;-75
2023/02/08 10:12:53;;;;;;;6.47;5.05;;;12.80;58.30;;;;;;5069184;28;20586;-77
2023/02/08 10:15:33;;;;;;;7.22;5.70;;;13.90;59.20;;;;;;5068847;28;20659;-75
2023/02/08 10:18:40;;;;;;;5.97;4.90;;;15.10;58.40;;;;;;5070685;28;20702;-76
2023/02/08 10:21:24;;;;;;;7.57;5.60;;;15.90;56.70;;;;;;5060137;28;20462;-75
2023/02/08 10:24:08;;;;;;;5.70;4.87;;;16.20;54.90;;;;;;5068929;28;20462;-75
2023/02/08 10:26:45;;;;;;;8.18;4.75;;;14.70;55.20;;;;;;5067455;28;20486;-74
2023/02/08 10:29:38;;;;;;;6.55;4.68;;;14.10;57.00;;;;;;5068013;28;20200;-75
2023/02/08 10:32:18;;;;;;;9.20;4.40;;;14.20;56.00;;;;;;5042764;28;20663;-76
2023/02/08 10:34:48;;;;;;;10.27;5.13;;;14.80;57.70;;;;;;5079227;28;20192;-76
2023/02/08 10:37:19;;;;;;;6.15;5.47;;;15.60;57.20;;;;;;5070611;28;20255;-75
2023/02/08 10:39:46;;;;;;;7.30;6.13;;;15.90;55.20;;;;;;5069738;28;20196;-74
2023/02/08 10:42:15;;;;;;;7.60;5.70;;;15.90;55.60;;;;;;5069373;28;20207;-75
2023/02/08 10:44:54;;;;;;;6.50;4.57;;;15.70;55.70;;;;;;5068713;28;20510;-74
2023/02/08 10:47:37;;;;;;;6.93;6.07;;;16.10;55.60;;;;;;5070604;28;20850;-75
2023/02/08 10:50:18;;;;;;;8.43;6.60;;;16.60;58.20;;;;;;5070142;28;20533;-75
2023/02/08 10:52:46;;;;;;;10.20;6.60;;;17.30;57.60;;;;;;5070152;28;20451;-75
2023/02/08 10:55:15;;;;;;;8.70;6.50;;;18.50;56.50;;;;;;5069369;28;20465;-75
2023/02/08 10:57:43;;;;;;;6.50;5.33;;;18.30;54.90;;;;;;5070384;28;21034;-75
2023/02/08 11:00:17;;;;;;;12.13;6.80;;;16.60;54.50;;;;;;5069900;28;20462;-75
2023/02/08 11:02:45;;;;;;;10.30;7.87;;;16.50;57.00;;;;;;5069713;28;20464;-75
2023/02/08 11:05:16;;;;;;;6.17;4.67;;;16.80;57.40;;;;;;5070187;28;21021;-75
2023/02/08 11:07:43;;;;;;;6.87;5.03;;;17.00;55.80;;;;;;5068972;28;20663;-75
2023/02/08 11:10:28;;;;;;;7.50;4.80;;;16.30;54.30;;;;;;5069244;28;20466;-75
2023/02/08 11:12:57;;;;;;;6.70;5.43;;;16.00;55.00;;;;;;5069384;28;20462;-75
2023/02/08 11:15:27;;;;;;;7.10;5.67;;;16.20;55.60;;;;;;5069806;28;20461;-74
2023/02/08 11:17:57;;;;;;;7.53;5.70;;;17.00;55.60;;;;;;5070040;28;20961;-75
2023/02/08 11:20:30;;;;;;;6.10;5.00;;;17.50;55.60;;;;;;5069063;28;20461;-75
2023/02/08 11:22:58;;;;;;;9.87;6.30;;;17.90;55.00;;;;;;5070230;28;20454;-73
2023/02/08 11:25:34;;;;;;;6.13;4.60;;;18.10;55.00;;;;;;5069027;28;20489;-74
2023/02/08 11:28:01;;;;;;;7.23;5.17;;;17.10;54.20;;;;;;5069994;28;20454;-73
2023/02/08 11:30:29;;;;;;;9.87;5.40;;;16.70;56.30;;;;;;5066370;28;20458;-74
2023/02/08 11:33:22;;;;;;;6.20;4.60;;;16.90;55.10;;;;;;5066621;28;20463;-77
2023/02/08 11:35:56;;;;;;;5.43;3.70;;;17.10;56.00;;;;;;5049796;28;20478;-76
2023/02/08 11:38:26;;;;;;;5.77;4.37;;;16.80;55.00;;;;;;5049425;28;20458;-76
2023/02/08 11:40:56;;;;;;;7.13;4.20;;;15.90;54.80;;;;;;5049367;28;20495;-76
2023/02/08 11:43:26;;;;;;;4.60;3.83;;;15.30;56.00;;;;;;5048877;28;20496;-75
2023/02/08 11:45:55;;;;;;;6.53;4.70;;;15.00;55.40;;;;;;5049488;28;21116;-76
2023/02/08 11:48:25;;;;;;;5.20;4.10;;;15.00;56.10;;;;;;5059508;28;20473;-76
2023/02/08 11:50:57;;;;;;;5.10;3.90;;;14.90;56.90;;;;;;5071942;28;20459;-76
2023/02/08 11:53:31;;;;;;;8.20;5.20;;;14.20;56.90;;;;;;5071288;28;20667;-77
2023/02/08 11:56:07;;;;;;;4.70;3.75;;;14.50;56.70;;;;;;5071487;28;20227;-77
2023/02/08 11:58:34;;;;;;;4.10;3.57;;;14.70;55.80;;;;;;5066907;28;20200;-76
2023/02/08 12:01:02;;;;;;;4.70;4.00;;;14.80;56.80;;;;;;5070685;28;20455;-76
2023/02/08 12:03:32;;;;;;;6.50;4.20;;;14.70;57.30;;;;;;5070214;28;20565;-76
2023/02/08 12:06:19;;;;;;;4.67;3.90;;;15.00;57.00;;;;;;5070611;28;20726;-76
2023/02/08 12:09:00;;;;;;;5.10;4.27;;;15.30;56.40;;;;;;5069188;28;20466;-77
2023/02/08 12:11:32;;;;;;;5.25;4.05;;;14.80;55.80;;;;;;5069936;28;20898;-75
2023/02/08 12:14:15;;;;;;;4.32;3.38;;;13.60;56.70;;;;;;5070876;28;20301;-76
2023/02/08 12:17:08;;;;;;;7.95;3.70;;;13.10;56.90;;;;;;5071420;28;20240;-76
2023/02/08 12:20:05;;;;;;;5.47;4.40;;;12.50;57.70;;;;;;5075161;28;20617;-75
2023/02/08 12:22:48;;;;;;;4.25;3.38;;;12.80;58.50;;;;;;5077380;28;20223;-75
2023/02/08 12:25:26;;;;;;;6.20;3.60;;;12.20;58.40;;;;;;5078676;28;20310;-77
2023/02/08 12:28:05;;;;;;;6.95;3.60;;;11.60;58.80;;;;;;5077313;28;20286;-76
2023/02/08 12:30:34;;;;;;;3.80;3.15;;;12.00;60.80;;;;;;5073678;28;20200;-78
2023/02/08 12:33:22;;;;;;;7.40;4.43;;;12.40;58.60;;;;;;5073986;28;20192;-77
2023/02/08 12:36:05;;;;;;;6.10;3.30;;;12.70;59.20;;;;;;5082786;28;20564;-78
2023/02/08 12:42:16;;;;;;;4.82;4.18;;;12.00;58.60;;;;;;5079690;28;20203;-79
2023/02/08 12:44:58;;;;;;;5.10;3.70;;;11.30;59.60;;;;;;5075569;28;20196;-78
2023/02/08 12:47:40;;;;;;;4.70;3.90;;;11.00;60.70;;;;;;5073947;28;20224;-77
2023/02/08 12:50:18;;;;;;;5.53;4.15;;;11.40;61.20;;;;;;5073863;28;20224;-76
2023/02/08 12:52:50;;;;;;;5.95;3.95;;;11.60;60.00;;;;;;5076640;28;20258;-77
2023/02/08 12:55:21;;;;;;;4.88;3.92;;;11.80;59.80;;;;;;5075155;28;20207;-77
2023/02/08 12:57:53;;;;;;;5.18;3.95;;;11.40;60.50;;;;;;5073416;28;20204;-79
2023/02/08 13:00:23;;;;;;;4.57;3.92;;;11.60;60.80;;;;;;5073352;28;20211;-78
2023/02/08 13:02:58;;;;;;;4.53;3.22;;;11.70;59.60;;;;;;5078162;28;20216;-78
2023/02/08 13:05:31;;;;;;;6.55;4.07;;;12.10;60.30;;;;;;5073341;28;20355;-79